createdAt,value
2022-08-17T00:01:22.791Z,8.02
2022-08-17T00:03:52.945Z,6.95
2022-08-17T00:06:20.161Z,7.15
2022-08-17T00:08:46.465Z,7.30
2022-08-17T00:11:14.216Z,7.63
2022-08-17T00:13:42.449Z,8.07
2022-08-17T00:16:10.345Z,7.78
2022-08-17T00:19:00.959Z,7.93
2022-08-17T00:21:23.864Z,7.70
2022-08-17T00:23:50.436Z,7.10
2022-08-17T00:26:16.100Z,8.43
2022-08-17T00:29:00.440Z,7.97
2022-08-17T00:31:25.040Z,7.22
2022-08-17T00:33:49.356Z,8.35
2022-08-17T00:36:14.650Z,7.47
2022-08-17T00:38:40.068Z,8.48
2022-08-17T00:41:07.175Z,7.40
2022-08-17T00:43:34.338Z,7.65
2022-08-17T00:45:59.083Z,7.80
2022-08-17T00:48:29.089Z,9.15
2022-08-17T00:51:02.790Z,8.43
2022-08-17T00:53:29.628Z,8.52
2022-08-17T00:55:55.941Z,8.15
2022-08-17T00:58:35.810Z,8.77
2022-08-17T01:01:02.207Z,8.40
2022-08-17T01:03:27.547Z,8.60
2022-08-17T01:05:53.027Z,8.60
2022-08-17T01:08:19.892Z,8.82
2022-08-17T01:10:58.444Z,8.77
2022-08-17T01:13:28.758Z,8.55
2022-08-17T01:15:57.391Z,9.32
2022-08-17T01:18:21.370Z,7.88
2022-08-17T01:20:50.053Z,8.75
2022-08-17T01:23:20.521Z,8.13
2022-08-17T01:25:45.314Z,8.75
2022-08-17T01:28:13.253Z,9.75
2022-08-17T01:30:59.624Z,9.98
2022-08-17T01:33:23.646Z,9.27
2022-08-17T01:35:47.693Z,8.35
2022-08-17T01:38:11.822Z,8.85
2022-08-17T01:40:40.378Z,9.02
2022-08-17T01:43:09.703Z,8.38
2022-08-17T01:45:37.856Z,9.23
2022-08-17T01:48:02.484Z,9.43
2022-08-17T01:50:30.573Z,9.13
2022-08-17T01:52:59.806Z,8.50
2022-08-17T01:55:28.341Z,9.85
2022-08-17T01:57:53.830Z,10.50
2022-08-17T02:00:18.388Z,10.45
2022-08-17T02:02:45.898Z,10.60
2022-08-17T02:05:10.349Z,11.27
2022-08-17T02:07:55.975Z,12.05
2022-08-17T02:10:20.748Z,12.90
2022-08-17T02:12:44.812Z,13.63
2022-08-17T02:15:12.569Z,12.23
2022-08-17T02:17:36.757Z,12.18
2022-08-17T02:20:01.037Z,12.20
2022-08-17T02:22:26.236Z,14.27
2022-08-17T02:25:00.929Z,13.38
2022-08-17T02:27:28.155Z,13.48
2022-08-17T02:29:52.162Z,14.30
2022-08-17T02:32:20.742Z,14.38
2022-08-17T02:34:52.452Z,14.30
2022-08-17T02:37:17.867Z,14.38
2022-08-17T02:39:41.956Z,13.27
2022-08-17T02:42:07.854Z,8.50
2022-08-17T02:44:38.696Z,6.28
2022-08-17T02:47:05.249Z,5.50
2022-08-17T02:49:30.733Z,5.78
2022-08-17T02:51:54.865Z,6.30
2022-08-17T02:54:41.473Z,9.95
2022-08-17T02:57:03.365Z,7.97
2022-08-17T02:59:27.482Z,6.80
2022-08-17T03:01:51.792Z,7.03
2022-08-17T03:04:15.869Z,6.65
2022-08-17T03:06:41.328Z,5.53
2022-08-17T03:09:05.597Z,5.82
2022-08-17T03:11:29.916Z,6.18
2022-08-17T03:13:54.104Z,5.85
2022-08-17T03:16:18.119Z,4.88
2022-08-17T03:18:42.316Z,5.38
2022-08-17T03:21:08.567Z,5.40
2022-08-17T03:23:34.279Z,5.15
2022-08-17T03:25:59.561Z,5.35
2022-08-17T03:28:24.990Z,4.95
2022-08-17T03:30:49.057Z,5.43
2022-08-17T03:33:13.076Z,5.53
2022-08-17T03:35:40.449Z,5.85
2022-08-17T03:38:05.750Z,4.97
2022-08-17T03:40:41.805Z,5.68
2022-08-17T03:43:18.070Z,4.80
2022-08-17T03:46:01.214Z,5.75
2022-08-17T03:48:48.552Z,7.22
2022-08-17T03:51:35.032Z,7.47
2022-08-17T03:54:17.659Z,7.40
2022-08-17T03:56:44.600Z,9.13
2022-08-17T03:59:09.143Z,7.65
2022-08-17T04:01:48.146Z,9.05
2022-08-17T04:04:12.398Z,12.15
2022-08-17T04:06:36.427Z,7.22
2022-08-17T04:09:00.915Z,7.97
2022-08-17T04:11:24.974Z,7.75
2022-08-17T04:13:50.327Z,6.80
2022-08-17T04:16:14.328Z,5.82
2022-08-17T04:18:38.538Z,6.85
2022-08-17T04:21:02.694Z,6.15
2022-08-17T04:23:32.753Z,8.50
2022-08-17T04:25:57.591Z,5.88
2022-08-17T04:28:21.866Z,5.55
2022-08-17T04:30:48.765Z,5.20
2022-08-17T04:33:15.484Z,5.18
2022-08-17T04:35:42.858Z,5.13
2022-08-17T04:38:07.828Z,4.65
2022-08-17T04:40:49.471Z,5.32
2022-08-17T04:43:18.765Z,5.60
2022-08-17T04:45:51.330Z,6.25
2022-08-17T04:48:21.917Z,7.15
2022-08-17T04:50:48.746Z,7.05
2022-08-17T04:53:13.150Z,6.60
2022-08-17T04:55:37.506Z,5.80
2022-08-17T04:58:01.423Z,5.93
2022-08-17T05:00:26.129Z,5.63
2022-08-17T05:02:52.577Z,5.55
2022-08-17T05:05:21.403Z,5.30
2022-08-17T05:07:45.632Z,8.35
2022-08-17T05:10:10.490Z,7.72
2022-08-17T05:12:34.524Z,8.05
2022-08-17T05:14:58.505Z,8.95
2022-08-17T05:17:22.576Z,9.95
2022-08-17T05:19:51.742Z,9.18
2022-08-17T05:22:17.432Z,8.32
2022-08-17T05:24:43.522Z,7.80
2022-08-17T05:27:19.160Z,8.38
2022-08-17T05:29:44.001Z,8.43
2022-08-17T05:32:38.391Z,8.18
2022-08-17T05:35:00.443Z,8.32
2022-08-17T05:37:26.087Z,8.48
2022-08-17T05:39:50.092Z,8.48
2022-08-17T05:42:19.446Z,7.40
2022-08-17T05:44:43.552Z,7.93
2022-08-17T05:47:09.904Z,7.90
2022-08-17T05:49:34.146Z,7.72
2022-08-17T05:52:21.755Z,8.27
2022-08-17T05:54:59.904Z,8.90
2022-08-17T05:57:55.921Z,8.52
2022-08-17T06:00:26.267Z,8.60
2022-08-17T06:03:27.751Z,8.25
2022-08-17T06:06:07.270Z,8.00
2022-08-17T06:08:39.665Z,7.47
2022-08-17T06:11:15.948Z,8.07
2022-08-17T06:14:01.741Z,6.72
2022-08-17T06:16:34.534Z,7.57
2022-08-17T06:19:03.425Z,7.18
2022-08-17T06:21:34.175Z,4.80
2022-08-17T06:24:03.211Z,4.95
2022-08-17T06:26:39.635Z,4.10
2022-08-17T06:29:18.804Z,4.65
2022-08-17T06:31:43.386Z,4.45
2022-08-17T06:34:10.561Z,4.90
2022-08-17T06:36:51.919Z,4.63
2022-08-17T06:39:36.418Z,4.75
2022-08-17T06:43:02.887Z,5.10
2022-08-17T06:45:04.260Z,4.88
2022-08-17T06:47:36.481Z,4.40
2022-08-17T06:50:10.204Z,3.90
2022-08-17T06:52:45.932Z,4.20
2022-08-17T06:55:18.072Z,4.00
2022-08-17T06:57:49.703Z,4.35
2022-08-17T07:00:17.694Z,4.63
2022-08-17T07:02:53.175Z,4.57
2022-08-17T07:05:21.773Z,3.95
2022-08-17T07:08:05.536Z,4.57
2022-08-17T07:10:36.476Z,4.13
2022-08-17T07:13:25.629Z,4.15
2022-08-17T07:15:56.806Z,4.30
2022-08-17T07:18:22.590Z,4.43
2022-08-17T07:20:53.833Z,4.38
2022-08-17T07:23:26.889Z,4.47
2022-08-17T07:25:51.508Z,4.28
2022-08-17T07:28:24.569Z,3.90
2022-08-17T07:30:52.722Z,4.65
2022-08-17T07:33:20.338Z,4.25
2022-08-17T07:35:48.283Z,4.50
2022-08-17T07:38:24.957Z,4.82
2022-08-17T07:41:03.006Z,5.07
2022-08-17T07:43:31.148Z,4.20
2022-08-17T07:46:37.324Z,4.97
2022-08-17T07:49:21.788Z,4.18
2022-08-17T07:51:58.326Z,5.28
2022-08-17T07:54:39.571Z,4.45
2022-08-17T07:57:29.859Z,4.20
2022-08-17T08:00:23.864Z,4.15
2022-08-17T08:03:06.319Z,4.90
2022-08-17T08:05:49.667Z,3.58
2022-08-17T08:08:33.593Z,4.07
2022-08-17T08:11:07.254Z,4.07
2022-08-17T08:13:32.887Z,4.25
2022-08-17T08:16:20.071Z,4.40
2022-08-17T08:18:55.813Z,4.90
2022-08-17T08:21:30.137Z,4.75
2022-08-17T08:24:00.863Z,4.07
2022-08-17T08:26:33.578Z,3.67
2022-08-17T08:29:09.053Z,4.00
2022-08-17T08:31:51.491Z,4.28
2022-08-17T08:34:49.700Z,4.10
2022-08-17T08:37:30.158Z,4.63
2022-08-17T08:40:08.526Z,4.80
2022-08-17T08:42:40.625Z,4.38
2022-08-17T08:45:14.998Z,4.30
2022-08-17T08:48:05.463Z,4.43
2022-08-17T08:50:40.405Z,4.30
2022-08-17T08:53:33.946Z,4.22
2022-08-17T08:56:04.239Z,5.05
2022-08-17T08:58:41.558Z,4.40
2022-08-17T09:01:28.588Z,3.92
2022-08-17T09:04:24.564Z,3.83
2022-08-17T09:07:03.672Z,4.20
2022-08-17T09:09:42.338Z,3.80
2022-08-17T09:12:15.500Z,4.20
2022-08-17T09:14:47.376Z,4.68
2022-08-17T09:17:16.478Z,4.32
2022-08-17T09:19:48.072Z,4.68
2022-08-17T09:22:23.603Z,4.55
2022-08-17T09:24:54.749Z,4.32
2022-08-17T09:27:21.663Z,4.50
2022-08-17T09:29:50.778Z,4.10
2022-08-17T09:32:23.446Z,4.68
2022-08-17T09:34:54.972Z,4.25
2022-08-17T09:37:24.108Z,4.53
2022-08-17T09:39:56.671Z,4.00
2022-08-17T09:42:27.718Z,3.55
2022-08-17T09:45:02.574Z,4.10
2022-08-17T09:47:32.007Z,4.53
2022-08-17T09:50:07.488Z,4.68
2022-08-17T09:52:32.515Z,4.25
2022-08-17T09:54:58.818Z,4.35
2022-08-17T09:57:39.214Z,4.25
2022-08-17T10:00:16.609Z,3.97
2022-08-17T10:03:28.357Z,4.13
2022-08-17T10:05:59.537Z,4.40
2022-08-17T10:08:33.963Z,4.70
2022-08-17T10:11:12.820Z,4.10
2022-08-17T10:13:52.744Z,4.80
2022-08-17T10:16:27.156Z,4.72
2022-08-17T10:19:04.088Z,3.95
2022-08-17T10:21:49.821Z,4.22
2022-08-17T10:25:21.281Z,3.80
2022-08-17T10:27:40.639Z,4.05
2022-08-17T10:30:07.948Z,3.55
2022-08-17T10:32:36.622Z,3.55
2022-08-17T10:35:19.105Z,4.18
2022-08-17T10:38:05.433Z,4.00
2022-08-17T10:40:37.291Z,4.18
2022-08-17T10:43:14.666Z,3.97
2022-08-17T10:46:10.567Z,4.20
2022-08-17T10:48:39.800Z,3.95
2022-08-17T10:51:08.781Z,3.92
2022-08-17T10:53:56.070Z,4.18
2022-08-17T10:56:23.367Z,3.83
2022-08-17T10:58:50.561Z,3.83
2022-08-17T11:01:14.790Z,3.88
2022-08-17T11:03:54.815Z,3.63
2022-08-17T11:06:31.730Z,3.83
2022-08-17T11:09:31.035Z,4.30
2022-08-17T11:12:16.164Z,4.13
2022-08-17T11:15:00.606Z,4.22
2022-08-17T11:17:49.848Z,3.85
2022-08-17T11:20:40.972Z,4.28
2022-08-17T11:23:33.746Z,4.45
2022-08-17T11:26:04.081Z,5.03
2022-08-17T11:28:35.294Z,4.03
2022-08-17T11:31:04.617Z,4.38
2022-08-17T11:34:02.201Z,4.22
2022-08-17T11:36:51.939Z,4.70
2022-08-17T11:39:41.370Z,4.43
2022-08-17T11:42:11.991Z,4.18
2022-08-17T11:44:51.516Z,4.32
2022-08-17T11:47:39.137Z,4.35
2022-08-17T11:51:01.517Z,4.47
2022-08-17T11:56:55.300Z,4.07
2022-08-17T12:00:03.538Z,4.45
2022-08-17T12:02:36.098Z,4.82
2022-08-17T12:05:27.385Z,4.00
2022-08-17T12:07:58.390Z,6.35
2022-08-17T12:10:31.763Z,7.38
2022-08-17T12:12:56.533Z,6.10
2022-08-17T12:15:30.115Z,5.68
2022-08-17T12:17:56.729Z,5.50
2022-08-17T12:20:34.011Z,4.97
2022-08-17T12:23:08.427Z,3.60
2022-08-17T12:25:37.563Z,3.20
2022-08-17T12:28:06.913Z,3.42
2022-08-17T12:30:33.043Z,3.88
2022-08-17T12:32:57.223Z,4.40
2022-08-17T12:35:27.058Z,4.13
2022-08-17T12:37:51.919Z,3.88
2022-08-17T12:40:22.657Z,3.60
2022-08-17T12:42:56.864Z,4.30
2022-08-17T12:45:24.889Z,4.75
2022-08-17T12:47:51.404Z,4.05
2022-08-17T12:50:29.750Z,3.78
2022-08-17T12:52:59.659Z,4.75
2022-08-17T12:55:26.514Z,4.50
2022-08-17T12:57:59.720Z,5.38
2022-08-17T13:00:29.048Z,5.03
2022-08-17T13:02:59.241Z,5.47
2022-08-17T13:05:27.740Z,4.97
2022-08-17T13:07:53.269Z,5.72
2022-08-17T13:10:22.197Z,4.65
2022-08-17T13:12:46.391Z,4.93
2022-08-17T13:15:21.606Z,5.50
2022-08-17T13:17:56.535Z,5.45
2022-08-17T13:20:22.159Z,5.10
2022-08-17T13:22:54.563Z,5.03
2022-08-17T13:25:18.800Z,4.95
2022-08-17T13:27:44.253Z,5.53
2022-08-17T13:30:12.946Z,5.25
2022-08-17T13:32:43.549Z,4.82
2022-08-17T13:35:39.323Z,5.35
2022-08-17T13:38:06.589Z,5.72
2022-08-17T13:40:37.429Z,4.80
2022-08-17T13:43:03.409Z,5.13
2022-08-17T13:45:53.475Z,4.97
2022-08-17T13:48:27.546Z,5.63
2022-08-17T13:51:14.760Z,5.60
2022-08-17T13:53:53.372Z,5.07
2022-08-17T13:56:38.358Z,5.25
2022-08-17T13:59:07.288Z,5.40
2022-08-17T14:01:34.801Z,5.22
2022-08-17T14:04:00.599Z,5.88
2022-08-17T14:06:51.868Z,5.57
2022-08-17T14:09:11.719Z,6.03
2022-08-17T14:11:35.911Z,5.07
2022-08-17T14:14:01.052Z,4.72
2022-08-17T14:16:26.037Z,5.10
2022-08-17T14:18:56.850Z,5.20
2022-08-17T14:21:21.488Z,5.28
2022-08-17T14:23:49.955Z,4.97
2022-08-17T14:26:19.373Z,5.03
2022-08-17T14:28:54.433Z,5.13
2022-08-17T14:31:20.756Z,5.15
2022-08-17T14:33:44.892Z,5.15
2022-08-17T14:36:09.631Z,4.70
2022-08-17T14:38:33.695Z,6.07
2022-08-17T14:40:59.443Z,4.88
2022-08-17T14:43:23.349Z,5.20
2022-08-17T14:45:47.667Z,5.47
2022-08-17T14:48:12.016Z,5.28
2022-08-17T14:50:37.541Z,5.13
2022-08-17T14:53:04.673Z,5.50
2022-08-17T14:55:29.815Z,5.38
2022-08-17T14:57:55.227Z,5.28
2022-08-17T15:00:19.496Z,5.72
2022-08-17T15:02:48.277Z,5.15
2022-08-17T15:05:12.236Z,5.28
2022-08-17T15:07:36.197Z,5.53
2022-08-17T15:10:01.364Z,5.35
2022-08-17T15:12:32.278Z,4.97
2022-08-17T15:15:00.981Z,5.40
2022-08-17T15:17:25.047Z,5.43
2022-08-17T15:19:49.018Z,5.22
2022-08-17T15:22:22.109Z,5.22
2022-08-17T15:24:46.263Z,5.18
2022-08-17T15:27:11.511Z,4.68
2022-08-17T15:29:35.773Z,5.10
2022-08-17T15:32:02.092Z,4.85
2022-08-17T15:34:26.280Z,5.20
2022-08-17T15:36:50.519Z,4.72
2022-08-17T15:39:14.669Z,4.93
2022-08-17T15:41:43.843Z,5.50
2022-08-17T15:44:07.852Z,5.30
2022-08-17T15:46:32.012Z,4.57
2022-08-17T15:49:01.938Z,5.15
2022-08-17T15:51:28.707Z,5.22
2022-08-17T15:53:57.055Z,4.82
2022-08-17T15:56:22.337Z,4.47
2022-08-17T15:58:48.001Z,5.03
2022-08-17T16:01:14.914Z,7.47
2022-08-17T16:03:52.368Z,5.65
2022-08-17T16:06:30.636Z,5.55
2022-08-17T16:08:55.011Z,5.32
2022-08-17T16:11:19.911Z,5.88
2022-08-17T16:13:54.508Z,4.93
2022-08-17T16:16:18.951Z,5.43
2022-08-17T16:18:44.271Z,5.25
2022-08-17T16:21:31.295Z,5.80
2022-08-17T16:24:12.780Z,6.30
2022-08-17T16:26:39.545Z,6.05
2022-08-17T16:29:06.601Z,5.95
2022-08-17T16:31:32.586Z,5.38
2022-08-17T16:34:16.085Z,5.32
2022-08-17T16:36:41.754Z,5.38
2022-08-17T16:39:27.172Z,5.97
2022-08-17T16:41:52.405Z,5.30
2022-08-17T16:44:22.427Z,5.18
2022-08-17T16:46:48.123Z,5.30
2022-08-17T16:49:13.639Z,5.25
2022-08-17T16:52:03.420Z,5.72
2022-08-17T16:54:29.040Z,5.00
2022-08-17T16:56:53.320Z,5.53
2022-08-17T16:59:31.054Z,5.75
2022-08-17T17:02:05.111Z,5.43
2022-08-17T17:04:29.572Z,5.88
2022-08-17T17:07:03.984Z,4.80
2022-08-17T17:09:35.117Z,5.32
2022-08-17T17:12:03.388Z,5.85
2022-08-17T17:14:31.682Z,5.90
2022-08-17T17:17:03.836Z,6.30
2022-08-17T17:19:35.804Z,6.38
2022-08-17T17:22:09.212Z,5.53
2022-08-17T17:24:45.898Z,5.80
2022-08-17T17:27:21.472Z,5.88
2022-08-17T17:29:59.923Z,6.50
2022-08-17T17:32:38.026Z,6.00
2022-08-17T17:35:06.783Z,7.05
2022-08-17T17:37:35.412Z,6.82
2022-08-17T17:40:06.533Z,6.25
2022-08-17T17:42:33.720Z,6.93
2022-08-17T17:45:04.625Z,6.68
2022-08-17T17:47:30.924Z,6.63
2022-08-17T17:49:55.223Z,6.57
2022-08-17T17:52:27.485Z,6.35
2022-08-17T17:55:04.854Z,6.38
2022-08-17T17:57:47.257Z,7.07
2022-08-17T18:00:17.078Z,7.07
2022-08-17T18:02:57.793Z,14.30
2022-08-17T18:05:49.467Z,14.65
2022-08-17T18:08:32.200Z,5.70
2022-08-17T18:11:07.944Z,7.43
2022-08-17T18:13:50.203Z,6.85
2022-08-17T18:16:16.340Z,6.50
2022-08-17T18:18:44.175Z,6.43
2022-08-17T18:21:19.575Z,6.28
2022-08-17T18:24:06.662Z,5.97
2022-08-17T18:26:45.402Z,5.70
2022-08-17T18:29:25.807Z,5.47
2022-08-17T18:31:52.633Z,6.45
2022-08-17T18:34:46.022Z,5.88
2022-08-17T18:37:09.455Z,6.43
2022-08-17T18:39:34.270Z,6.07
2022-08-17T18:42:00.596Z,6.35
2022-08-17T18:44:29.689Z,6.15
2022-08-17T18:47:09.282Z,6.82
2022-08-17T18:49:34.269Z,7.82
2022-08-17T18:52:12.428Z,6.55
2022-08-17T18:54:37.549Z,6.38
2022-08-17T18:57:02.248Z,6.10
2022-08-17T18:59:32.693Z,6.22
2022-08-17T19:02:38.682Z,6.55
2022-08-17T19:05:13.484Z,6.55
2022-08-17T19:07:40.413Z,7.32
2022-08-17T19:10:15.417Z,7.20
2022-08-17T19:12:45.217Z,6.88
2022-08-17T19:15:13.728Z,7.22
2022-08-17T19:17:45.894Z,7.00
2022-08-17T19:20:17.183Z,6.72
2022-08-17T19:23:03.623Z,6.05
2022-08-17T19:25:32.710Z,5.97
2022-08-17T19:28:05.347Z,6.28
2022-08-17T19:30:48.067Z,6.57
2022-08-17T19:33:12.447Z,6.75
2022-08-17T19:35:55.241Z,5.88
2022-08-17T19:38:31.649Z,5.57
2022-08-17T19:41:08.460Z,6.15
2022-08-17T19:43:51.432Z,5.68
2022-08-17T19:46:26.258Z,7.25
2022-08-17T19:48:58.714Z,6.68
2022-08-17T19:51:36.941Z,5.28
2022-08-17T19:54:07.458Z,6.50
2022-08-17T19:56:42.404Z,6.57
2022-08-17T19:59:17.352Z,6.63
2022-08-17T20:01:50.314Z,5.32
2022-08-17T20:04:20.065Z,6.00
2022-08-17T20:06:46.930Z,5.78
2022-08-17T20:09:18.252Z,5.32
2022-08-17T20:11:48.865Z,6.60
2022-08-17T20:14:18.811Z,5.72
2022-08-17T20:16:45.134Z,5.97
2022-08-17T20:19:24.233Z,6.25
2022-08-17T20:21:57.744Z,6.40
2022-08-17T20:24:32.213Z,5.45
2022-08-17T20:26:59.978Z,6.05
2022-08-17T20:29:40.073Z,6.07
2022-08-17T20:32:27.174Z,6.18
2022-08-17T20:35:04.508Z,5.63
2022-08-17T20:37:32.432Z,6.20
2022-08-17T20:40:29.075Z,6.00
2022-08-17T20:42:53.498Z,6.10
2022-08-17T20:45:55.551Z,6.38
2022-08-17T20:48:37.869Z,6.00
2022-08-17T20:51:19.593Z,6.25
2022-08-17T20:54:07.761Z,6.03
2022-08-17T20:56:57.886Z,6.32
2022-08-17T20:59:57.290Z,6.45
2022-08-17T21:02:24.368Z,6.97
2022-08-17T21:05:05.452Z,6.30
2022-08-17T21:07:45.957Z,6.47
2022-08-17T21:10:14.024Z,6.45
2022-08-17T21:12:44.201Z,6.65
2022-08-17T21:15:18.324Z,6.22
2022-08-17T21:17:49.684Z,6.45
2022-08-17T21:20:32.279Z,6.72
2022-08-17T21:23:12.469Z,6.13
2022-08-17T21:25:57.383Z,6.57
2022-08-17T21:28:33.900Z,6.07
2022-08-17T21:31:01.184Z,6.25
2022-08-17T21:33:31.540Z,6.22
2022-08-17T21:36:26.389Z,6.65
2022-08-17T21:38:59.912Z,7.25
2022-08-17T21:41:27.629Z,7.13
2022-08-17T21:43:52.716Z,6.72
2022-08-17T21:46:26.343Z,6.57
2022-08-17T21:48:54.321Z,7.72
2022-08-17T21:51:24.840Z,7.00
2022-08-17T21:53:52.283Z,7.18
2022-08-17T21:56:24.064Z,6.80
2022-08-17T21:58:54.568Z,7.50
2022-08-17T22:01:24.886Z,7.40
2022-08-17T22:03:57.687Z,8.00
2022-08-17T22:06:27.902Z,7.95
2022-08-17T22:09:04.415Z,8.05
2022-08-17T22:11:28.643Z,7.53
2022-08-17T22:14:00.703Z,7.03
2022-08-17T22:16:30.374Z,7.93
2022-08-17T22:18:54.665Z,7.85
2022-08-17T22:21:18.962Z,7.63
2022-08-17T22:24:07.354Z,8.23
2022-08-17T22:27:00.674Z,7.15
2022-08-17T22:29:57.812Z,7.30
2022-08-17T22:32:43.043Z,7.93
2022-08-17T22:35:35.749Z,7.55
2022-08-17T22:38:31.083Z,7.35
2022-08-17T22:41:13.562Z,7.25
2022-08-17T22:43:40.351Z,7.32
2022-08-17T22:46:10.612Z,8.75
2022-08-17T22:48:35.093Z,7.65
2022-08-17T22:51:12.434Z,8.38
2022-08-17T22:53:55.360Z,8.73
2022-08-17T22:56:42.412Z,8.52
2022-08-17T22:59:23.565Z,9.20
2022-08-17T23:02:13.008Z,7.68
2022-08-17T23:04:39.713Z,8.10
2022-08-17T23:07:04.148Z,8.00
2022-08-17T23:09:30.987Z,8.32
2022-08-17T23:11:58.640Z,7.93
2022-08-17T23:14:22.840Z,7.18
2022-08-17T23:16:47.265Z,8.20
2022-08-17T23:19:11.465Z,7.78
2022-08-17T23:21:37.139Z,7.65
2022-08-17T23:24:01.463Z,7.78
2022-08-17T23:26:27.742Z,7.28
2022-08-17T23:28:53.227Z,7.68
2022-08-17T23:31:21.044Z,7.97
2022-08-17T23:33:51.189Z,7.13
2022-08-17T23:36:16.950Z,7.63
2022-08-17T23:38:43.600Z,7.60
2022-08-17T23:41:14.347Z,7.80
2022-08-17T23:43:39.529Z,6.78
2022-08-17T23:46:07.292Z,6.80
2022-08-17T23:48:35.794Z,6.32
2022-08-17T23:51:04.026Z,6.90
2022-08-17T23:53:31.292Z,7.50
2022-08-17T23:56:07.008Z,6.68
2022-08-17T23:58:34.106Z,7.13
